< Cyclone 201305 2013 Season Cyclone 201308 >
Cyclone 201307 (Oswald)
General InformationTrack Information on Google MapsDetailed Wind InformationList of All Images || ResourceGoogle EarthGE AnimationAtom FeedGeoJSON
Detalied Best Track (Time Zone = UTC)
Year Month Day Hour Lat. Long. Pressure (hPa) Wind (kt) Class Image Chart
2013 1 17 12 -13.9 138.0 1003 15 2 Image --
2013 1 17 18 -15.4 138.5 1000 15 2 Image --
2013 1 18 06 -16.7 138.5 998 20 2 Image --
2013 1 18 12 -16.6 137.9 998 20 2 Image --
2013 1 18 18 -16.5 136.8 998 20 2 Image --
2013 1 20 12 -16.2 137.3 999 20 2 Image --
2013 1 20 18 -15.6 139.1 997 30 2 Image --
2013 1 21 00 -15.8 140.2 996 30 2 Image --
2013 1 21 06 -15.8 140.7 992 35 3 Image --
2013 1 21 12 -15.4 141.3 992 35 3 Image --
2013 1 21 18 -14.9 141.7 991 30 2 Image --
2013 1 22 00 -14.2 142.1 993 25 2 Image --
2013 1 22 06 -14.0 143.2 993 0 0 Image --
2013 1 22 12 -14.5 144.3 993 0 0 Image --
2013 1 22 18 -15.4 144.8 993 0 0 Image --
2013 1 23 00 -15.7 144.8 993 0 0 Image --
2013 1 23 06 -16.0 144.6 993 0 0 Image --
2013 1 23 12 -16.8 144.8 993 0 0 Image --
2013 1 23 18 -17.8 145.0 993 0 0 Image --
2013 1 24 00 -18.7 145.6 993 0 0 Image --
2013 1 24 06 -19.8 146.9 993 0 0 Image --
2013 1 24 12 -21.1 147.7 993 0 0 Image --
2013 1 24 18 -21.4 148.2 993 0 0 Image --
2013 1 25 00 -22.3 148.6 993 0 0 Image --
2013 1 25 06 -22.8 149.3 993 0 0 Image --
2013 1 25 12 -22.9 149.3 993 0 0 Image --
2013 1 25 18 -23.1 149.1 993 0 0 Image --
2013 1 26 00 -23.2 148.6 993 0 0 Image --
2013 1 26 06 -23.5 148.5 993 0 0 Image --
2013 1 26 12 -23.9 149.4 993 0 0 Image --
2013 1 26 18 -24.5 150.0 993 0 0 Image --
2013 1 27 00 -26.3 149.9 993 0 0 Image --
2013 1 27 06 -26.6 150.4 993 0 0 Image --
2013 1 27 12 -26.8 150.9 993 0 0 Image --
2013 1 27 18 -26.9 151.0 993 0 0 Image --
2013 1 28 00 -27.2 151.1 993 0 0 Image --
2013 1 28 06 -28.8 150.9 993 0 0 Image --
2013 1 28 12 -31.0 151.1 993 0 0 Image --
< Cyclone 201305 2013 Season Cyclone 201308 >

Help